Time;durP1;ratioP1;P1;durP2;ratioP2;P2;SDS_P1;SDS_P2;PMS_P1;PMS_P2;Temp;Humidity;BMP_temperature;BMP_pressure;BME280_temperature;BME280_humidity;BME280_pressure;Samples;Min_cycle;Max_cycle;Signal;HPM_P1;HPM_P2
2022/01/02 00:00:46;;;;;;;4.05;2.53;;;;;;;11.53;68.03;97785.84;5987992;23;20213;-85
2022/01/02 00:03:13;;;;;;;5.20;2.67;;;;;;;11.61;68.26;97786.25;5972707;23;20285;-84
2022/01/02 00:05:40;;;;;;;4.53;3.00;;;;;;;11.57;67.92;97787.75;5995835;23;20202;-85
2022/01/02 00:08:07;;;;;;;5.45;3.35;;;;;;;11.63;68.67;97783.41;6004684;23;20388;-85
2022/01/02 00:10:45;;;;;;;5.68;2.60;;;;;;;11.58;68.14;97781.50;5994243;23;20226;-85
2022/01/02 00:13:15;;;;;;;5.00;2.50;;;;;;;11.64;68.15;97779.78;6029367;23;20204;-84
2022/01/02 00:15:41;;;;;;;3.63;2.50;;;;;;;11.86;67.23;97776.44;5996336;23;20182;-85
2022/01/02 00:18:11;;;;;;;2.97;2.38;;;;;;;11.80;67.30;97758.09;5973895;23;20625;-85
2022/01/02 00:20:45;;;;;;;5.18;2.90;;;;;;;11.61;67.89;97769.81;5998252;23;20139;-84
2022/01/02 00:23:17;;;;;;;5.88;2.67;;;;;;;11.71;67.78;97759.53;6009987;23;20182;-84
2022/01/02 00:25:43;;;;;;;3.28;2.30;;;;;;;11.72;67.50;97740.25;5999522;23;20080;-85
2022/01/02 00:28:10;;;;;;;4.97;2.88;;;;;;;11.70;67.22;97752.72;5974411;23;20245;-85
2022/01/02 00:30:36;;;;;;;4.63;3.17;;;;;;;11.84;67.11;97748.00;5973939;23;20232;-85
2022/01/02 00:33:02;;;;;;;4.60;3.00;;;;;;;11.84;66.72;97753.22;5996900;23;20252;-83
2022/01/02 00:35:28;;;;;;;3.92;2.47;;;;;;;11.78;66.14;97752.34;5973226;23;20253;-85
2022/01/02 00:37:53;;;;;;;4.78;3.00;;;;;;;11.74;65.92;97763.50;5972883;23;20173;-84
2022/01/02 00:40:19;;;;;;;4.78;2.70;;;;;;;11.68;66.29;97773.06;6006967;23;20581;-84
2022/01/02 00:42:44;;;;;;;3.45;2.30;;;;;;;11.58;66.56;97767.66;5973529;23;20155;-84
2022/01/02 00:45:20;;;;;;;4.57;2.88;;;;;;;11.49;66.17;97769.09;5996565;23;20257;-84
2022/01/02 00:48:14;;;;;;;4.25;3.15;;;;;;;11.21;66.87;97753.22;6031258;23;20179;-84
2022/01/02 00:50:49;;;;;;;5.97;2.70;;;;;;;11.22;67.22;97765.25;5997922;23;20317;-84
2022/01/02 00:53:17;;;;;;;4.47;2.72;;;;;;;11.32;67.02;97762.00;5997340;23;20322;-84
2022/01/02 00:55:43;;;;;;;5.45;2.75;;;;;;;11.37;66.96;97756.09;5972430;23;20224;-84
2022/01/02 00:58:16;;;;;;;4.47;2.85;;;;;;;11.28;66.85;97762.75;5996749;23;20171;-85
2022/01/02 01:00:47;;;;;;;5.18;3.15;;;;;;;11.25;67.12;97759.56;6006832;23;20258;-85
2022/01/02 01:03:29;;;;;;;5.40;2.70;;;;;;;11.29;67.39;97757.25;5949019;23;20612;-85
2022/01/02 01:05:55;;;;;;;5.95;3.13;;;;;;;11.33;67.88;97753.19;5949631;23;20258;-85
2022/01/02 01:08:24;;;;;;;7.43;3.50;;;;;;;11.30;67.73;97753.66;6006949;23;20204;-85
2022/01/02 01:10:50;;;;;;;7.05;3.95;;;;;;;11.43;67.69;97755.19;5949656;23;20179;-86
2022/01/02 01:13:16;;;;;;;7.03;3.38;;;;;;;11.40;67.91;97751.22;5973521;23;20092;-85
2022/01/02 01:15:42;;;;;;;3.85;2.88;;;;;;;11.48;67.65;97751.84;6007513;23;20163;-85
2022/01/02 01:18:08;;;;;;;3.60;2.60;;;;;;;11.61;67.05;97754.16;6006309;23;20195;-86
2022/01/02 01:20:41;;;;;;;5.82;3.95;;;;;;;11.44;67.05;97731.44;5949275;23;20156;-85
2022/01/02 01:23:07;;;;;;;4.95;3.70;;;;;;;11.58;66.71;97725.94;5983341;23;20163;-85
2022/01/02 01:25:33;;;;;;;4.93;3.13;;;;;;;11.64;66.62;97732.03;5972353;23;20170;-85
2022/01/02 01:27:59;;;;;;;5.07;2.97;;;;;;;11.72;66.48;97742.88;6006506;23;20186;-84
2022/01/02 01:30:26;;;;;;;5.00;3.03;;;;;;;11.64;66.43;97742.47;5983125;23;20215;-84
2022/01/02 01:32:53;;;;;;;4.97;2.95;;;;;;;11.64;66.66;97734.66;6005996;23;20567;-84
2022/01/02 01:35:19;;;;;;;6.75;3.75;;;;;;;11.60;66.79;97749.97;5972683;23;20168;-84
2022/01/02 01:37:45;;;;;;;6.63;3.80;;;;;;;11.60;66.14;97731.69;5981998;23;20131;-84
2022/01/02 01:40:11;;;;;;;6.50;3.67;;;;;;;11.67;66.41;97741.97;5982104;23;20344;-84
2022/01/02 01:42:40;;;;;;;5.25;3.75;;;;;;;11.55;66.05;97729.00;6006091;23;20072;-85
2022/01/02 01:47:50;;;;;;;4.47;3.30;;;;;;;11.40;67.16;97734.78;5974499;23;20262;-85
2022/01/02 01:50:18;;;;;;;5.15;3.30;;;;;;;11.50;67.05;97731.53;5973234;23;20614;-85
2022/01/02 01:52:43;;;;;;;6.85;3.65;;;;;;;11.52;66.48;97725.06;5982556;23;20539;-85
2022/01/02 01:55:10;;;;;;;5.07;3.92;;;;;;;11.50;66.78;97724.53;5966366;23;20178;-85
2022/01/02 01:57:38;;;;;;;5.60;3.80;;;;;;;11.43;66.89;97714.25;5994582;23;20174;-85
2022/01/02 02:00:10;;;;;;;5.03;3.53;;;;;;;11.40;66.50;97721.75;6004240;23;20538;-86
2022/01/02 02:02:36;;;;;;;4.80;3.55;;;;;;;11.47;66.66;97711.94;6004801;23;20105;-86
2022/01/02 02:05:01;;;;;;;5.55;3.78;;;;;;;11.43;67.04;97708.25;6030090;23;20185;-84
2022/01/02 02:07:37;;;;;;;5.85;3.45;;;;;;;11.53;66.14;97705.00;5996952;23;20246;-83
2022/01/02 02:10:13;;;;;;;;;;;;;;;11.29;66.98;97717.38;5996939;23;20190;-85
2022/01/02 02:12:40;;;;;;;5.82;3.65;;;;;;;11.53;66.11;97708.41;5996276;23;20089;-84
2022/01/02 02:15:07;;;;;;;6.00;4.00;;;;;;;11.50;66.29;97710.69;6021234;23;20262;-85
2022/01/02 02:17:33;;;;;;;5.20;3.15;;;;;;;11.53;66.47;97711.03;5971957;23;20717;-84
2022/01/02 02:20:11;;;;;;;5.85;3.45;;;;;;;11.15;66.88;97711.66;6007319;23;20261;-87
2022/01/02 02:22:42;;;;;;;5.60;3.85;;;;;;;11.34;66.83;97701.81;6007716;23;20195;-85
2022/01/02 02:25:09;;;;;;;5.10;3.17;;;;;;;11.28;66.37;97697.56;5998693;23;20190;-85
2022/01/02 02:27:35;;;;;;;5.32;3.67;;;;;;;11.27;66.70;97694.16;5973168;23;20551;-86
2022/01/02 02:30:00;;;;;;;6.15;4.03;;;;;;;11.23;66.64;97683.41;5997176;23;20221;-85
2022/01/02 02:32:26;;;;;;;4.53;3.25;;;;;;;11.17;66.74;97665.31;5973375;23;20185;-85
2022/01/02 02:34:51;;;;;;;5.47;3.40;;;;;;;11.08;66.96;97667.50;6031916;23;20224;-85
2022/01/02 02:37:16;;;;;;;5.47;3.25;;;;;;;11.14;66.57;97666.59;6031766;23;20181;-85
2022/01/02 02:39:42;;;;;;;5.30;3.67;;;;;;;11.03;67.04;97665.59;5975218;23;20182;-86
2022/01/02 02:42:16;;;;;;;5.25;3.55;;;;;;;11.06;66.91;97659.94;6005568;23;20006;-86
2022/01/02 02:44:42;;;;;;;5.10;3.30;;;;;;;10.83;67.38;97649.63;6041119;23;20245;-85
2022/01/02 02:49:51;;;;;;;4.50;2.95;;;;;;;11.13;66.23;97649.34;6001432;23;20245;-83
2022/01/02 02:52:38;;;;;;;4.47;3.65;;;;;;;11.20;66.11;97649.22;6030876;23;20165;-85
2022/01/02 02:55:02;;;;;;;4.35;3.15;;;;;;;11.34;65.54;97660.13;6000559;23;20380;-84
2022/01/02 02:57:31;;;;;;;6.28;3.30;;;;;;;11.31;65.00;97661.38;6020321;23;20169;-85
2022/01/02 02:59:56;;;;;;;5.82;3.75;;;;;;;11.25;64.97;97651.91;6031715;23;20257;-85
2022/01/02 03:02:22;;;;;;;5.50;3.03;;;;;;;11.16;65.81;97658.53;6032115;23;20286;-84
2022/01/02 03:04:47;;;;;;;5.88;3.15;;;;;;;11.12;66.10;97660.00;5973746;23;20424;-85
2022/01/02 03:07:13;;;;;;;6.57;3.85;;;;;;;11.26;66.02;97669.13;6030520;23;20646;-84
2022/01/02 03:09:41;;;;;;;4.53;3.42;;;;;;;11.18;65.05;97662.47;6031033;23;20284;-84
2022/01/02 03:12:08;;;;;;;3.92;3.28;;;;;;;11.07;65.83;97652.94;5998853;23;20151;-85
2022/01/02 03:14:36;;;;;;;4.40;3.17;;;;;;;11.11;66.17;97650.63;5974172;23;20189;-86
2022/01/02 03:17:03;;;;;;;5.07;3.03;;;;;;;11.11;65.81;97640.22;5997150;23;20233;-84
2022/01/02 03:19:29;;;;;;;5.72;3.33;;;;;;;11.02;65.82;97627.56;5997942;23;20593;-85
2022/01/02 03:21:56;;;;;;;5.38;3.22;;;;;;;11.02;65.91;97626.78;5996978;23;20151;-85
2022/01/02 03:24:21;;;;;;;4.88;2.38;;;;;;;11.12;65.44;97624.34;6031707;23;20660;-84
2022/01/02 03:26:46;;;;;;;5.05;2.90;;;;;;;11.10;65.76;97617.78;6031488;23;20249;-84
2022/01/02 03:29:12;;;;;;;6.25;3.20;;;;;;;11.13;65.38;97620.69;5997851;23;20186;-85
2022/01/02 03:31:37;;;;;;;3.72;2.63;;;;;;;11.25;65.10;97628.44;6031042;23;20264;-84
2022/01/02 03:34:02;;;;;;;3.63;2.40;;;;;;;11.21;65.11;97622.13;6030813;23;20663;-85
2022/01/02 03:36:28;;;;;;;3.92;2.63;;;;;;;11.17;65.02;97602.75;6030876;23;20190;-85
2022/01/02 03:38:53;;;;;;;3.92;2.78;;;;;;;11.16;64.92;97599.38;5996745;23;20227;-84
2022/01/02 03:41:19;;;;;;;2.83;2.28;;;;;;;11.22;65.17;97608.06;5997033;23;20254;-85
2022/01/02 03:43:44;;;;;;;4.13;2.47;;;;;;;11.17;65.07;97594.94;5996810;23;20658;-85
2022/01/02 03:46:09;;;;;;;4.18;2.60;;;;;;;11.21;64.73;97604.66;5997380;23;20237;-85
2022/01/02 03:48:35;;;;;;;3.47;2.45;;;;;;;11.20;65.18;97602.28;5996380;23;20186;-85
2022/01/02 03:51:00;;;;;;;4.93;2.25;;;;;;;11.29;64.61;97600.06;5996741;23;20174;-86
2022/01/02 03:53:26;;;;;;;3.40;2.58;;;;;;;11.27;64.63;97597.69;5972321;23;20194;-85
2022/01/02 03:55:52;;;;;;;3.47;2.55;;;;;;;11.32;64.47;97589.97;5973668;23;20304;-84
2022/01/02 03:58:17;;;;;;;3.20;2.38;;;;;;;11.36;64.44;97591.06;5949095;23;20171;-85
2022/01/02 04:00:43;;;;;;;2.78;2.20;;;;;;;11.32;64.61;97595.16;5982054;23;20153;-85
2022/01/02 04:03:08;;;;;;;3.47;2.50;;;;;;;11.16;65.00;97578.53;5973325;23;20259;-86
2022/01/02 04:05:34;;;;;;;3.85;2.25;;;;;;;11.33;64.54;97580.34;5972846;23;20246;-86
2022/01/02 04:07:59;;;;;;;3.35;2.22;;;;;;;11.38;64.25;97581.19;5982001;23;20076;-85
2022/01/02 04:10:25;;;;;;;3.88;2.42;;;;;;;11.41;64.02;97583.34;5950554;23;20145;-85
2022/01/02 04:12:50;;;;;;;4.20;2.03;;;;;;;11.32;64.22;97584.75;6006435;23;20564;-85
2022/01/02 04:15:16;;;;;;;4.57;2.53;;;;;;;11.39;64.23;97566.34;5983043;23;20258;-86
2022/01/02 04:17:41;;;;;;;4.15;2.70;;;;;;;11.34;64.03;97561.81;6007754;23;20149;-84
2022/01/02 04:20:10;;;;;;;3.00;2.20;;;;;;;11.35;64.07;97563.41;5973520;23;20273;-85
2022/01/02 04:22:36;;;;;;;3.60;2.42;;;;;;;11.39;63.76;97559.28;5973079;23;20266;-85
2022/01/02 04:25:03;;;;;;;2.72;1.98;;;;;;;11.44;63.41;97551.53;5973683;23;20231;-85
2022/01/02 04:27:29;;;;;;;3.38;2.40;;;;;;;11.45;63.72;97547.13;5971721;23;20153;-85
2022/01/02 04:29:54;;;;;;;3.17;2.67;;;;;;;11.53;63.51;97558.97;5982494;23;20219;-84
2022/01/02 04:32:19;;;;;;;2.72;2.42;;;;;;;11.40;63.59;97562.72;5972722;23;20342;-86
2022/01/02 04:34:45;;;;;;;5.15;3.03;;;;;;;11.28;63.45;97549.75;5983000;23;20150;-86
2022/01/02 04:37:11;;;;;;;3.00;2.17;;;;;;;11.42;63.48;97547.59;5949071;23;20192;-85
2022/01/02 04:39:37;;;;;;;3.60;2.17;;;;;;;11.48;63.49;97538.84;6005856;23;20136;-86
2022/01/02 04:42:03;;;;;;;5.38;2.33;;;;;;;11.44;63.28;97563.78;6006196;23;20266;-85
2022/01/02 04:44:29;;;;;;;2.47;2.20;;;;;;;11.60;63.72;97575.22;5996734;23;20175;-83
2022/01/02 04:46:54;;;;;;;4.57;2.58;;;;;;;11.41;62.88;97538.19;6006207;23;20187;-85
2022/01/02 04:49:20;;;;;;;3.35;2.45;;;;;;;11.61;62.80;97556.72;5997190;23;20254;-86
2022/01/02 04:51:45;;;;;;;6.10;3.35;;;;;;;11.52;62.45;97545.13;6006461;23;20172;-86
2022/01/02 04:54:11;;;;;;;3.30;2.30;;;;;;;11.43;63.24;97538.78;6008787;23;20491;-84
2022/01/02 04:56:36;;;;;;;3.33;2.28;;;;;;;11.50;62.53;97533.34;5997511;23;20147;-85
2022/01/02 04:59:02;;;;;;;3.22;2.33;;;;;;;11.50;62.63;97538.56;6020864;23;20389;-85
2022/01/02 05:01:28;;;;;;;2.65;2.00;;;;;;;11.57;62.32;97540.00;5997429;23;20254;-86
2022/01/02 05:03:53;;;;;;;2.85;2.30;;;;;;;11.62;61.93;97547.88;5998019;23;20628;-86
2022/01/02 05:06:19;;;;;;;3.22;2.50;;;;;;;11.54;62.63;97539.69;5998509;23;20221;-85
2022/01/02 05:08:45;;;;;;;4.07;2.30;;;;;;;11.46;62.53;97527.06;5998683;23;20245;-85
2022/01/02 05:11:11;;;;;;;4.10;2.58;;;;;;;11.42;63.24;97521.53;6033223;23;20181;-86
2022/01/02 05:13:36;;;;;;;3.78;2.20;;;;;;;11.37;63.14;97513.66;6000173;23;20190;-84
2022/01/02 05:16:02;;;;;;;3.50;2.05;;;;;;;11.43;62.91;97513.47;6000168;23;20380;-86
2022/01/02 05:18:27;;;;;;;2.60;1.88;;;;;;;11.33;63.06;97513.34;6033365;23;20620;-86
2022/01/02 05:20:53;;;;;;;2.95;2.00;;;;;;;11.39;62.76;97517.56;6032807;23;20655;-87
2022/01/02 05:23:19;;;;;;;3.55;2.05;;;;;;;11.45;62.56;97515.84;5974766;23;20333;-86
2022/01/02 05:25:45;;;;;;;3.45;1.80;;;;;;;11.58;62.10;97499.03;5997650;23;20266;-85
2022/01/02 05:28:11;;;;;;;3.72;1.90;;;;;;;11.62;62.48;97508.75;6008468;23;20525;-85
2022/01/02 05:30:40;;;;;;;2.78;1.60;;;;;;;11.50;62.19;97508.09;5997871;23;20190;-85
2022/01/02 05:33:06;;;;;;;2.25;1.83;;;;;;;11.51;61.78;97521.91;5973675;23;20669;-85
2022/01/02 05:35:31;;;;;;;3.63;2.28;;;;;;;11.64;61.62;97528.59;5998284;23;20186;-84
2022/01/02 05:38:02;;;;;;;2.03;1.58;;;;;;;11.55;61.88;97536.03;5997624;23;20212;-85
2022/01/02 05:40:31;;;;;;;3.03;1.73;;;;;;;11.53;62.47;97525.88;6031742;23;20238;-84
2022/01/02 05:43:00;;;;;;;3.35;1.67;;;;;;;11.59;62.36;97522.28;6008073;23;20052;-83
2022/01/02 05:45:26;;;;;;;2.97;1.60;;;;;;;11.62;62.22;97534.06;6031169;23;20720;-83
2022/01/02 05:47:51;;;;;;;2.22;1.67;;;;;;;11.46;63.07;97522.63;5997202;23;20079;-84
2022/01/02 05:50:17;;;;;;;3.00;2.25;;;;;;;11.47;63.12;97528.66;5997126;23;20676;-84
2022/01/02 05:52:42;;;;;;;2.35;1.73;;;;;;;11.39;63.31;97516.78;6031320;23;20075;-83
2022/01/02 05:55:08;;;;;;;2.80;2.05;;;;;;;11.35;63.08;97521.72;6021734;23;20261;-83
2022/01/02 05:57:33;;;;;;;3.35;1.75;;;;;;;11.31;63.06;97512.81;5997167;23;20177;-84
2022/01/02 05:59:58;;;;;;;3.90;2.08;;;;;;;11.34;62.65;97512.28;6029555;23;20181;-84
2022/01/02 06:02:24;;;;;;;3.30;1.90;;;;;;;11.32;63.11;97516.19;5997341;23;20173;-84
2022/01/02 06:04:49;;;;;;;3.60;2.05;;;;;;;11.27;62.80;97519.50;6030787;23;20168;-84
2022/01/02 06:07:15;;;;;;;3.90;2.15;;;;;;;11.24;63.13;97519.97;6006308;23;20672;-85
2022/01/02 06:09:41;;;;;;;2.80;1.85;;;;;;;11.27;62.80;97511.69;6031499;23;20163;-83
2022/01/02 06:12:07;;;;;;;4.07;2.42;;;;;;;11.17;63.32;97496.72;6030954;23;20171;-84
2022/01/02 06:14:32;;;;;;;2.90;2.00;;;;;;;11.18;62.81;97500.09;5996708;23;20284;-84
2022/01/02 06:16:57;;;;;;;2.53;1.90;;;;;;;11.15;62.54;97485.72;6030354;23;20193;-84
2022/01/02 06:19:23;;;;;;;3.28;2.35;;;;;;;11.21;62.94;97489.97;6030627;23;20242;-85
2022/01/02 06:21:48;;;;;;;3.83;2.45;;;;;;;11.16;63.06;97476.09;5996942;23;20281;-84
2022/01/02 06:24:13;;;;;;;2.83;2.00;;;;;;;11.24;62.81;97484.28;5996433;23;20177;-84
2022/01/02 06:26:39;;;;;;;3.10;2.03;;;;;;;11.22;62.40;97485.56;6030949;23;20327;-85
2022/01/02 06:29:04;;;;;;;3.30;2.25;;;;;;;11.26;62.63;97499.69;5973971;23;20221;-85
2022/01/02 06:31:33;;;;;;;3.65;2.08;;;;;;;11.19;63.01;97502.47;6006089;23;20598;-83
2022/01/02 06:33:58;;;;;;;2.58;1.95;;;;;;;11.34;62.39;97503.69;6031189;23;20155;-83
2022/01/02 06:36:24;;;;;;;3.15;2.03;;;;;;;11.21;62.95;97499.63;6029802;23;20138;-84
2022/01/02 06:38:49;;;;;;;3.50;2.35;;;;;;;11.27;62.60;97501.25;5973672;23;20323;-84
2022/01/02 06:41:16;;;;;;;3.00;2.28;;;;;;;11.32;62.54;97506.53;6031316;23;20566;-83
2022/01/02 06:43:42;;;;;;;2.20;1.90;;;;;;;11.29;62.80;97514.06;6021568;23;20593;-84
2022/01/02 06:46:10;;;;;;;2.50;2.08;;;;;;;11.31;62.55;97507.59;5996630;23;20199;-83
2022/01/02 06:48:36;;;;;;;2.63;1.92;;;;;;;11.34;62.43;97514.13;6021747;23;20082;-84
2022/01/02 06:51:01;;;;;;;3.15;2.10;;;;;;;11.17;62.90;97516.75;5997793;23;20587;-84
2022/01/02 06:53:27;;;;;;;3.42;2.60;;;;;;;11.31;62.21;97518.00;6028311;23;20154;-84
2022/01/02 06:55:52;;;;;;;2.88;2.10;;;;;;;11.16;62.69;97505.56;5950667;23;20065;-84
2022/01/02 06:58:18;;;;;;;3.17;1.92;;;;;;;11.21;62.65;97499.63;6007874;23;20175;-84
2022/01/02 07:00:43;;;;;;;3.10;1.90;;;;;;;11.28;62.12;97509.88;5951134;23;20334;-85
2022/01/02 07:03:08;;;;;;;2.90;2.50;;;;;;;11.20;62.65;97508.47;6007564;23;20226;-84
2022/01/02 07:05:34;;;;;;;2.67;2.00;;;;;;;11.23;62.73;97505.38;5950444;23;20178;-85
2022/01/02 07:08:00;;;;;;;4.53;2.45;;;;;;;11.26;62.32;97502.31;5984497;23;20254;-85
2022/01/02 07:10:25;;;;;;;3.53;2.50;;;;;;;10.96;62.73;97497.44;5974558;23;20160;-85
2022/01/02 07:12:51;;;;;;;4.00;2.55;;;;;;;11.16;62.45;97494.34;6008085;23;20187;-84
2022/01/02 07:15:16;;;;;;;3.17;2.55;;;;;;;11.24;62.54;97501.72;6008327;23;20171;-84
2022/01/02 07:17:42;;;;;;;3.17;2.72;;;;;;;11.19;62.35;97492.03;5951298;23;20095;-84
2022/01/02 07:20:09;;;;;;;3.55;2.50;;;;;;;11.18;62.95;97494.88;5985562;23;20594;-84
2022/01/02 07:22:35;;;;;;;2.60;1.95;;;;;;;11.24;62.82;97483.50;5976014;23;20266;-86
2022/01/02 07:25:01;;;;;;;4.60;2.85;;;;;;;11.37;62.26;97490.19;5975027;23;20671;-84
2022/01/02 07:27:26;;;;;;;3.95;3.00;;;;;;;11.40;62.02;97493.09;5973651;23;20697;-83
2022/01/02 07:29:54;;;;;;;3.47;2.65;;;;;;;11.34;62.64;97488.84;5983622;23;20087;-83
2022/01/02 07:32:20;;;;;;;3.13;2.83;;;;;;;11.27;62.46;97472.59;5950828;23;20647;-84
2022/01/02 07:34:45;;;;;;;3.85;2.53;;;;;;;11.30;62.19;97492.97;5948823;23;20092;-86
2022/01/02 07:37:11;;;;;;;4.10;2.90;;;;;;;11.22;62.69;97472.50;5974239;23;20123;-82
2022/01/02 07:39:36;;;;;;;4.90;2.45;;;;;;;11.21;62.53;97463.91;6008700;23;20236;-84
2022/01/02 07:42:02;;;;;;;4.50;2.70;;;;;;;11.19;62.55;97455.56;5973438;23;20701;-84
2022/01/02 07:44:27;;;;;;;4.13;3.33;;;;;;;11.42;62.00;97451.91;6008230;23;20860;-83
2022/01/02 07:46:52;;;;;;;2.90;2.58;;;;;;;11.32;61.98;97453.63;5983525;23;20313;-84
2022/01/02 07:49:18;;;;;;;4.80;2.85;;;;;;;11.41;62.10;97460.78;6006058;23;20540;-84
2022/01/02 07:51:43;;;;;;;3.42;2.47;;;;;;;11.38;61.76;97452.66;5982160;23;20255;-84
2022/01/02 07:54:08;;;;;;;3.65;2.75;;;;;;;11.38;61.72;97465.69;5984770;23;20156;-85
2022/01/02 07:56:34;;;;;;;5.43;3.20;;;;;;;11.34;62.04;97446.34;6036379;23;20370;-86
2022/01/02 07:58:59;;;;;;;3.10;2.40;;;;;;;11.46;62.36;97449.63;5977871;23;20657;-84
2022/01/02 08:01:26;;;;;;;6.70;2.92;;;;;;;11.44;61.87;97454.28;5977986;23;20268;-83
2022/01/02 08:03:51;;;;;;;3.45;2.25;;;;;;;11.57;62.07;97456.53;6002370;23;20193;-83
2022/01/02 08:06:17;;;;;;;4.35;2.90;;;;;;;11.64;61.68;97451.13;6035923;23;20338;-84
2022/01/02 08:08:42;;;;;;;4.43;2.83;;;;;;;11.53;61.72;97445.03;5980341;23;20307;-83
2022/01/02 08:11:08;;;;;;;4.13;3.00;;;;;;;11.46;62.30;97438.41;6002122;23;20381;-84
2022/01/02 08:13:33;;;;;;;5.43;3.25;;;;;;;11.37;62.07;97436.22;5977914;23;20214;-84
2022/01/02 08:15:58;;;;;;;3.00;2.70;;;;;;;11.46;62.07;97447.00;6000896;23;20198;-82
2022/01/02 08:18:24;;;;;;;3.58;3.00;;;;;;;11.50;62.07;97449.91;5977104;23;20253;-84
2022/01/02 08:20:50;;;;;;;3.80;2.90;;;;;;;11.55;62.39;97445.56;6010807;23;20691;-85
2022/01/02 08:23:15;;;;;;;4.38;2.90;;;;;;;11.53;62.06;97450.25;5977283;23;20608;-85
2022/01/02 08:25:41;;;;;;;5.18;3.03;;;;;;;11.50;62.32;97455.13;5977898;23;20625;-83
2022/01/02 08:28:07;;;;;;;4.10;2.70;;;;;;;11.58;62.14;97450.31;6000469;23;20178;-84
2022/01/02 08:30:32;;;;;;;4.28;2.50;;;;;;;11.57;62.15;97466.19;5977579;23;20174;-84
2022/01/02 08:32:58;;;;;;;3.47;2.78;;;;;;;11.47;61.83;97471.28;5977094;23;20175;-84
2022/01/02 08:35:23;;;;;;;3.53;2.85;;;;;;;11.46;62.07;97469.69;5976575;23;20609;-85
2022/01/02 08:37:49;;;;;;;3.65;2.78;;;;;;;11.49;61.90;97464.78;6025719;23;20171;-83
2022/01/02 08:40:14;;;;;;;3.83;2.80;;;;;;;11.38;61.84;97473.53;6037548;23;20382;-85
2022/01/02 08:42:40;;;;;;;3.65;3.08;;;;;;;11.11;62.75;97474.22;6028044;23;20609;-85
2022/01/02 08:45:06;;;;;;;4.85;2.72;;;;;;;11.30;62.53;97477.31;6004503;23;20174;-83
2022/01/02 08:47:32;;;;;;;4.28;3.38;;;;;;;11.27;62.54;97467.38;6027595;23;20252;-85
2022/01/02 08:49:57;;;;;;;4.68;2.67;;;;;;;11.27;62.23;97454.34;6003327;23;20207;-84
2022/01/02 08:52:24;;;;;;;3.88;2.90;;;;;;;11.32;61.96;97464.81;5979382;23;20174;-85
2022/01/02 08:54:50;;;;;;;4.10;2.85;;;;;;;11.35;62.13;97459.13;5979994;23;20069;-86
2022/01/02 08:57:15;;;;;;;3.70;3.08;;;;;;;11.37;62.20;97464.13;6014118;23;20140;-84
2022/01/02 08:59:41;;;;;;;3.65;3.15;;;;;;;11.42;62.36;97457.13;6037973;23;20257;-84
2022/01/02 09:02:07;;;;;;;3.40;2.58;;;;;;;11.50;61.50;97460.34;6013463;23;20167;-83
2022/01/02 09:04:32;;;;;;;3.88;3.47;;;;;;;11.59;61.37;97464.13;5999535;23;20951;-85
2022/01/02 09:06:57;;;;;;;4.75;2.88;;;;;;;11.54;61.99;97451.81;6035504;23;20207;-84
2022/01/02 09:09:24;;;;;;;3.17;2.55;;;;;;;11.59;61.43;97449.25;6003924;23;20245;-83
2022/01/02 09:11:53;;;;;;;3.30;2.45;;;;;;;11.48;61.13;97439.75;5981659;23;20543;-84
2022/01/02 09:14:18;;;;;;;3.95;2.75;;;;;;;11.59;61.32;97441.44;5980463;23;20225;-84
2022/01/02 09:16:46;;;;;;;4.53;2.95;;;;;;;11.58;61.74;97432.03;6006509;23;20660;-85
2022/01/02 09:19:13;;;;;;;4.10;2.80;;;;;;;11.46;61.78;97418.31;5983523;23;20144;-84
2022/01/02 09:21:38;;;;;;;4.88;2.80;;;;;;;11.39;61.82;97428.94;6039676;23;20136;-84
2022/01/02 09:24:04;;;;;;;4.40;2.75;;;;;;;11.56;61.43;97456.78;6038007;23;20170;-84
2022/01/02 09:26:30;;;;;;;5.05;3.05;;;;;;;11.64;61.28;97486.88;6013193;23;20258;-85
2022/01/02 09:28:56;;;;;;;3.92;2.65;;;;;;;11.52;61.30;97472.13;6004409;23;20178;-85
2022/01/02 09:31:21;;;;;;;5.95;2.95;;;;;;;11.36;61.75;97457.31;6004766;23;20274;-82
2022/01/02 09:33:47;;;;;;;3.35;2.53;;;;;;;11.57;61.03;97474.78;6006171;23;20147;-85
2022/01/02 09:36:12;;;;;;;4.55;3.53;;;;;;;11.45;61.63;97468.91;5981183;23;20610;-84
2022/01/02 09:38:38;;;;;;;4.00;2.70;;;;;;;11.56;61.13;97470.59;6014552;23;20257;-85
2022/01/02 09:41:04;;;;;;;4.15;2.90;;;;;;;11.40;61.88;97472.25;6038993;23;20278;-81
2022/01/02 09:43:30;;;;;;;4.53;3.10;;;;;;;11.46;61.69;97449.63;5981113;23;20309;-84
2022/01/02 09:45:55;;;;;;;3.47;2.85;;;;;;;11.63;61.93;97449.56;6012836;23;20563;-84
2022/01/02 09:48:21;;;;;;;3.92;2.67;;;;;;;11.67;61.56;97466.31;5980590;23;20270;-85
2022/01/02 09:50:47;;;;;;;4.05;3.17;;;;;;;11.87;60.85;97462.34;5980172;23;20269;-84
2022/01/02 09:53:13;;;;;;;3.95;2.85;;;;;;;11.80;61.02;97447.66;6004558;23;20110;-83
2022/01/02 09:55:38;;;;;;;4.72;2.60;;;;;;;11.85;60.84;97428.66;5952421;23;20752;-83
2022/01/02 09:58:10;;;;;;;3.80;2.83;;;;;;;11.78;60.58;97426.25;5976955;23;20168;-84
2022/01/02 10:00:36;;;;;;;3.80;2.70;;;;;;;11.88;60.18;97409.91;5952960;23;20240;-84
2022/01/02 10:03:05;;;;;;;5.88;3.10;;;;;;;12.05;60.64;97414.28;5986187;23;20188;-84
2022/01/02 10:05:51;;;;;;;3.90;2.60;;;;;;;11.78;60.49;97407.19;5983774;23;20262;-82
2022/01/02 10:08:21;;;;;;;5.28;2.80;;;;;;;12.10;59.85;97391.59;5982790;23;20631;-84
2022/01/02 10:10:47;;;;;;;3.90;2.50;;;;;;;12.16;59.96;97382.00;5974067;23;20180;-83
2022/01/02 10:13:12;;;;;;;3.95;2.70;;;;;;;12.21;60.18;97397.69;5950656;23;20629;-83
2022/01/02 10:15:38;;;;;;;3.50;2.25;;;;;;;12.36;59.92;97383.97;5984306;23;20152;-83
2022/01/02 10:18:04;;;;;;;4.40;2.75;;;;;;;12.34;60.07;97368.56;6006545;23;20261;-83
2022/01/02 10:20:37;;;;;;;3.22;2.13;;;;;;;12.27;59.68;97352.31;6031367;23;20374;-84
2022/01/02 10:23:20;;;;;;;4.30;2.55;;;;;;;12.29;59.86;97344.25;5997375;23;20175;-84
2022/01/02 10:25:55;;;;;;;3.88;2.53;;;;;;;12.33;59.82;97334.84;5950464;23;20568;-84
2022/01/02 10:28:26;;;;;;;2.33;1.90;;;;;;;12.20;60.31;97340.50;6008650;23;20183;-83
2022/01/02 10:31:03;;;;;;;4.30;2.22;;;;;;;12.21;59.79;97342.09;5998696;23;20247;-84
2022/01/02 10:33:46;;;;;;;2.53;2.25;;;;;;;12.24;59.07;97329.31;6032870;23;20300;-84
2022/01/02 10:36:12;;;;;;;3.38;2.10;;;;;;;12.61;59.54;97335.53;6007699;23;20255;-84
2022/01/02 10:38:37;;;;;;;3.20;2.65;;;;;;;12.63;59.22;97351.75;5972752;23;20175;-84
2022/01/02 10:41:03;;;;;;;3.10;2.38;;;;;;;12.53;59.24;97357.72;6007233;23;20244;-84
2022/01/02 10:43:29;;;;;;;2.85;2.25;;;;;;;12.35;59.69;97356.28;5971084;23;20180;-84
2022/01/02 10:45:57;;;;;;;4.18;2.60;;;;;;;12.18;59.97;97357.22;6006315;23;20582;-84
2022/01/02 10:48:31;;;;;;;4.72;2.75;;;;;;;12.19;59.86;97360.63;5949633;23;20167;-84
2022/01/02 10:51:09;;;;;;;3.33;2.33;;;;;;;12.18;59.51;97354.63;5949001;23;20183;-84
2022/01/02 10:53:37;;;;;;;3.95;2.83;;;;;;;12.42;59.27;97382.97;5978144;23;20243;-84
2022/01/02 10:56:05;;;;;;;3.05;2.70;;;;;;;12.27;59.30;97427.22;6005312;23;20313;-82
2022/01/02 10:58:33;;;;;;;4.32;2.60;;;;;;;12.24;59.86;97432.97;6005230;23;20172;-84
2022/01/02 11:01:06;;;;;;;3.40;2.55;;;;;;;12.03;60.27;97421.53;6006280;23;20183;-84
2022/01/02 11:03:32;;;;;;;3.88;3.13;;;;;;;12.27;60.24;97406.34;5971659;23;20175;-84
2022/01/02 11:06:05;;;;;;;3.08;2.55;;;;;;;12.24;60.41;97388.59;6006785;23;20171;-84
2022/01/02 11:08:34;;;;;;;4.05;3.30;;;;;;;12.32;60.20;97368.03;5949416;23;20148;-84
2022/01/02 11:11:01;;;;;;;4.30;2.67;;;;;;;12.49;60.06;97357.44;6006314;23;20224;-84
2022/01/02 11:13:26;;;;;;;3.15;2.38;;;;;;;12.08;60.38;97344.09;5974290;23;20200;-82
2022/01/02 11:15:53;;;;;;;3.13;2.55;;;;;;;12.27;59.68;97326.22;5982294;23;20163;-84
2022/01/02 11:18:19;;;;;;;3.40;2.45;;;;;;;12.57;59.32;97332.66;6005119;23;20678;-83
2022/01/02 11:20:44;;;;;;;3.75;2.72;;;;;;;12.44;58.56;97320.84;5949431;23;20187;-84
2022/01/02 11:23:31;;;;;;;3.88;2.22;;;;;;;12.43;59.60;97324.47;6006115;23;20163;-84
2022/01/02 11:26:13;;;;;;;3.08;2.40;;;;;;;12.51;59.16;97321.41;5972939;23;20345;-84
2022/01/02 11:28:46;;;;;;;3.80;2.47;;;;;;;12.61;58.90;97332.94;5972944;23;20270;-84
2022/01/02 11:31:33;;;;;;;3.30;2.20;;;;;;;12.49;58.78;97322.69;5982481;23;20567;-83
2022/01/02 11:33:59;;;;;;;3.88;2.30;;;;;;;12.82;58.16;97334.63;6005647;23;20254;-84
2022/01/02 11:36:30;;;;;;;4.38;2.25;;;;;;;12.78;57.49;97338.75;6004561;23;20183;-83
2022/01/02 11:39:07;;;;;;;3.58;2.38;;;;;;;12.72;58.16;97330.13;5981218;23;20309;-84